createdAt,value
2022-09-26T00:00:11.936Z,7.50
2022-09-26T00:01:11.922Z,5.20
2022-09-26T00:02:11.894Z,5.10
2022-09-26T00:03:11.827Z,5.90
2022-09-26T00:04:11.762Z,3.90
2022-09-26T00:05:11.719Z,5.10
2022-09-26T00:06:11.690Z,7.30
2022-09-26T00:07:11.636Z,5.10
2022-09-26T00:08:11.599Z,6.50
2022-09-26T00:09:11.636Z,4.60
2022-09-26T00:10:11.533Z,5.20
2022-09-26T00:11:11.473Z,7.00
2022-09-26T00:12:11.437Z,6.70
2022-09-26T00:13:11.391Z,6.40
2022-09-26T00:14:11.354Z,5.20
2022-09-26T00:15:11.312Z,6.70
2022-09-26T00:16:11.432Z,4.30
2022-09-26T00:17:11.262Z,6.00
2022-09-26T00:18:11.224Z,6.40
2022-09-26T00:19:11.249Z,6.00
2022-09-26T00:20:11.109Z,5.90
2022-09-26T00:21:11.077Z,5.40
2022-09-26T00:22:11.031Z,5.60
2022-09-26T00:23:10.989Z,6.20
2022-09-26T00:24:10.960Z,6.10
2022-09-26T00:25:10.905Z,6.30
2022-09-26T00:26:10.866Z,6.10
2022-09-26T00:27:10.829Z,5.30
2022-09-26T00:28:10.786Z,5.30
2022-09-26T00:29:10.749Z,3.90
2022-09-26T00:30:10.718Z,5.40
2022-09-26T00:31:10.715Z,7.80
2022-09-26T00:32:10.624Z,6.00
2022-09-26T00:33:10.583Z,4.50
2022-09-26T00:34:10.541Z,7.20
2022-09-26T00:35:10.501Z,8.20
2022-09-26T00:36:10.485Z,5.60
2022-09-26T00:37:10.443Z,7.90
2022-09-26T00:38:10.380Z,5.90
2022-09-26T00:39:10.336Z,4.90
2022-09-26T00:40:10.355Z,6.60
2022-09-26T00:41:10.259Z,5.50
2022-09-26T00:42:10.218Z,5.70
2022-09-26T00:43:10.213Z,8.00
2022-09-26T00:44:10.138Z,6.50
2022-09-26T00:45:10.095Z,7.30
2022-09-26T00:46:10.113Z,5.70
2022-09-26T00:47:10.019Z,5.60
2022-09-26T00:48:09.974Z,6.40
2022-09-26T00:49:09.940Z,6.90
2022-09-26T00:50:09.887Z,6.30
2022-09-26T00:51:09.918Z,6.20
2022-09-26T00:52:09.811Z,5.70
2022-09-26T00:53:09.767Z,6.30
2022-09-26T00:54:09.747Z,7.40
2022-09-26T00:55:09.687Z,6.10
2022-09-26T00:56:09.649Z,6.00
2022-09-26T00:57:09.607Z,5.60
2022-09-26T00:58:09.569Z,6.50
2022-09-26T00:59:09.576Z,8.60
2022-09-26T01:00:09.498Z,7.90
2022-09-26T01:01:09.581Z,5.70
2022-09-26T01:02:09.494Z,9.00
2022-09-26T01:03:09.370Z,7.30
2022-09-26T01:04:09.324Z,7.80
2022-09-26T01:05:09.285Z,9.30
2022-09-26T01:06:09.271Z,6.00
2022-09-26T01:07:09.204Z,8.40
2022-09-26T01:08:09.162Z,6.10
2022-09-26T01:09:09.321Z,7.10
2022-09-26T01:10:09.093Z,5.20
2022-09-26T01:11:12.490Z,6.20
2022-09-26T01:12:09.011Z,8.60
2022-09-26T01:13:08.957Z,7.10
2022-09-26T01:14:08.919Z,5.50
2022-09-26T01:15:08.891Z,6.70
2022-09-26T01:16:08.894Z,7.20
2022-09-26T01:17:08.862Z,8.10
2022-09-26T01:18:08.780Z,7.30
2022-09-26T01:19:08.760Z,8.60
2022-09-26T01:20:08.675Z,7.60
2022-09-26T01:21:08.633Z,7.60
2022-09-26T01:22:08.596Z,6.60
2022-09-26T01:23:08.554Z,7.40
2022-09-26T01:24:08.525Z,8.20
2022-09-26T01:25:08.477Z,8.80
2022-09-26T01:26:08.434Z,8.10
2022-09-26T01:27:08.399Z,7.50
2022-09-26T01:28:08.352Z,7.20
2022-09-26T01:29:08.378Z,9.50
2022-09-26T01:30:08.285Z,7.60
2022-09-26T01:31:08.309Z,7.30
2022-09-26T01:32:08.191Z,8.00
2022-09-26T01:33:08.170Z,9.20
2022-09-26T01:34:08.116Z,7.40
2022-09-26T01:35:08.083Z,9.20
2022-09-26T01:36:08.030Z,8.20
2022-09-26T01:37:07.990Z,7.60
2022-09-26T01:38:07.988Z,8.00
2022-09-26T01:39:07.908Z,7.70
2022-09-26T01:40:07.867Z,6.90
2022-09-26T01:41:07.833Z,8.90
2022-09-26T01:42:07.805Z,7.80
2022-09-26T01:43:07.746Z,9.50
2022-09-26T01:44:07.704Z,9.70
2022-09-26T01:45:16.935Z,9.50
2022-09-26T01:46:07.740Z,9.30
2022-09-26T01:47:07.609Z,8.70
2022-09-26T01:48:07.543Z,7.80
2022-09-26T01:49:07.500Z,8.20
2022-09-26T01:50:07.462Z,9.70
2022-09-26T01:51:07.423Z,8.10
2022-09-26T01:52:07.392Z,12.00
2022-09-26T01:53:07.337Z,9.00
2022-09-26T01:54:07.299Z,10.10
2022-09-26T01:55:07.258Z,8.40
2022-09-26T01:56:07.217Z,9.20
2022-09-26T01:57:07.202Z,10.90
2022-09-26T01:58:07.137Z,9.20
2022-09-26T01:59:07.097Z,9.30
2022-09-26T02:00:07.056Z,9.10
2022-09-26T02:01:07.229Z,8.90
2022-09-26T02:02:07.009Z,9.70
2022-09-26T02:03:06.946Z,7.50
2022-09-26T02:04:06.897Z,7.30
2022-09-26T02:05:06.854Z,11.10
2022-09-26T02:06:06.823Z,9.80
2022-09-26T02:07:06.771Z,8.20
2022-09-26T02:08:06.735Z,8.70
2022-09-26T02:09:06.705Z,12.70
2022-09-26T02:10:06.660Z,7.80
2022-09-26T02:11:06.608Z,10.40
2022-09-26T02:12:06.588Z,8.60
2022-09-26T02:13:06.527Z,9.60
2022-09-26T02:14:06.492Z,8.60
2022-09-26T02:15:06.463Z,8.30
2022-09-26T02:16:06.491Z,8.80
2022-09-26T02:17:06.367Z,9.20
2022-09-26T02:18:06.330Z,9.80
2022-09-26T02:19:06.336Z,7.00
2022-09-26T02:20:06.479Z,9.90
2022-09-26T02:21:06.204Z,9.50
2022-09-26T02:22:06.163Z,8.10
2022-09-26T02:23:06.120Z,9.10
2022-09-26T02:24:06.088Z,9.80
2022-09-26T02:25:06.043Z,10.90
2022-09-26T02:26:06.029Z,7.70
2022-09-26T02:27:05.960Z,9.30
2022-09-26T02:28:05.925Z,7.70
2022-09-26T02:29:05.924Z,10.40
2022-09-26T02:30:05.841Z,10.60
2022-09-26T02:31:05.822Z,11.00
2022-09-26T02:32:05.874Z,12.20
2022-09-26T02:33:05.717Z,10.10
2022-09-26T02:34:05.681Z,10.40
2022-09-26T02:35:05.637Z,9.80
2022-09-26T02:36:05.599Z,9.50
2022-09-26T02:37:05.557Z,10.20
2022-09-26T02:38:05.527Z,9.90
2022-09-26T02:39:05.515Z,12.60
2022-09-26T02:40:05.434Z,10.50
2022-09-26T02:41:05.394Z,11.00
2022-09-26T02:42:05.355Z,11.80
2022-09-26T02:43:05.314Z,11.60
2022-09-26T02:44:05.287Z,10.30
2022-09-26T02:45:05.234Z,12.30
2022-09-26T02:46:05.242Z,10.30
2022-09-26T02:47:05.153Z,12.20
2022-09-26T02:48:05.113Z,10.50
2022-09-26T02:49:05.087Z,11.60
2022-09-26T02:50:05.046Z,12.90
2022-09-26T02:51:04.992Z,11.90
2022-09-26T02:52:04.952Z,10.30
2022-09-26T02:53:04.910Z,8.70
2022-09-26T02:54:04.871Z,9.50
2022-09-26T02:55:04.830Z,9.30
2022-09-26T02:56:04.807Z,9.30
2022-09-26T02:57:04.750Z,11.90
2022-09-26T02:58:04.710Z,11.20
2022-09-26T02:59:04.668Z,12.50
2022-09-26T03:00:04.631Z,10.10
2022-09-26T03:01:04.642Z,10.40
2022-09-26T03:02:04.546Z,11.40
2022-09-26T03:03:04.506Z,9.90
2022-09-26T03:04:04.468Z,8.10
2022-09-26T03:05:04.485Z,8.90
2022-09-26T03:06:04.399Z,9.20
2022-09-26T03:07:04.347Z,10.50
2022-09-26T03:08:04.310Z,9.00
2022-09-26T03:09:04.262Z,12.40
2022-09-26T03:10:04.224Z,9.80
2022-09-26T03:11:04.194Z,8.60
2022-09-26T03:12:04.144Z,10.70
2022-09-26T03:13:04.103Z,11.10
2022-09-26T03:14:04.064Z,9.50
2022-09-26T03:15:04.023Z,10.30
2022-09-26T03:16:04.017Z,9.90
2022-09-26T03:17:03.955Z,10.90
2022-09-26T03:18:03.901Z,11.20
2022-09-26T03:19:03.861Z,9.80
2022-09-26T03:20:03.820Z,13.00
2022-09-26T03:21:03.779Z,11.80
2022-09-26T03:22:03.753Z,11.30
2022-09-26T03:23:03.699Z,10.60
2022-09-26T03:24:03.670Z,10.50
2022-09-26T03:25:03.619Z,11.00
2022-09-26T03:26:03.579Z,9.40
2022-09-26T03:27:03.547Z,10.30
2022-09-26T03:28:03.499Z,9.50
2022-09-26T03:29:03.471Z,8.90
2022-09-26T03:30:03.421Z,8.60
2022-09-26T03:31:03.379Z,13.00
2022-09-26T03:32:03.435Z,10.60
2022-09-26T03:33:03.320Z,9.80
2022-09-26T03:34:03.270Z,9.60
2022-09-26T03:35:03.235Z,10.10
2022-09-26T03:36:03.174Z,12.00
2022-09-26T03:37:03.134Z,10.80
2022-09-26T03:38:03.093Z,9.30
2022-09-26T03:39:03.053Z,12.00
2022-09-26T03:40:03.021Z,10.70
2022-09-26T03:41:03.073Z,11.10
2022-09-26T03:42:02.931Z,10.40
2022-09-26T03:43:02.890Z,10.90
2022-09-26T03:44:02.852Z,10.20
2022-09-26T03:45:02.811Z,11.30
2022-09-26T03:46:02.814Z,11.90
2022-09-26T03:47:02.730Z,12.40
2022-09-26T03:48:02.706Z,8.80
2022-09-26T03:49:02.654Z,11.10
2022-09-26T03:50:02.618Z,11.00
2022-09-26T03:51:02.586Z,9.20
2022-09-26T03:52:02.532Z,11.10
2022-09-26T03:53:02.498Z,8.80
2022-09-26T03:54:02.447Z,12.00
2022-09-26T03:55:02.408Z,10.80
2022-09-26T03:56:02.367Z,10.10
2022-09-26T03:57:02.327Z,11.10
2022-09-26T03:58:02.305Z,10.50
2022-09-26T03:59:02.246Z,9.80
2022-09-26T04:00:02.210Z,11.30
2022-09-26T04:01:02.242Z,12.10
2022-09-26T04:02:02.200Z,9.80
2022-09-26T04:03:02.096Z,9.70
2022-09-26T04:04:02.059Z,9.80
2022-09-26T04:05:02.003Z,9.20
2022-09-26T04:06:01.977Z,10.00
2022-09-26T04:07:01.923Z,9.70
2022-09-26T04:08:01.881Z,12.00
2022-09-26T04:09:01.841Z,11.00
2022-09-26T04:10:01.839Z,9.70
2022-09-26T04:11:01.766Z,11.30
2022-09-26T04:12:01.720Z,9.40
2022-09-26T04:13:01.681Z,10.00
2022-09-26T04:14:01.638Z,10.60
2022-09-26T04:15:01.602Z,10.50
2022-09-26T04:16:01.639Z,11.90
2022-09-26T04:17:01.520Z,11.60
2022-09-26T04:18:01.479Z,9.70
2022-09-26T04:19:01.441Z,9.40
2022-09-26T04:20:01.396Z,12.20
2022-09-26T04:21:01.359Z,9.60
2022-09-26T04:22:01.332Z,10.40
2022-09-26T04:23:01.288Z,11.40
2022-09-26T04:24:01.243Z,12.00
2022-09-26T04:25:01.201Z,10.20
2022-09-26T04:26:01.158Z,10.70
2022-09-26T04:27:01.127Z,10.70
2022-09-26T04:28:01.085Z,9.60
2022-09-26T04:29:01.037Z,11.50
2022-09-26T04:30:00.994Z,11.50
2022-09-26T04:31:00.959Z,14.00
2022-09-26T04:32:00.957Z,12.10
2022-09-26T04:33:00.874Z,10.60
2022-09-26T04:34:00.833Z,10.20
2022-09-26T04:35:00.794Z,10.40
2022-09-26T04:36:00.751Z,10.80
2022-09-26T04:37:00.716Z,11.80
2022-09-26T04:38:00.684Z,10.60
2022-09-26T04:39:00.693Z,9.10
2022-09-26T04:40:00.590Z,9.50
2022-09-26T04:41:00.647Z,12.60
2022-09-26T04:42:00.509Z,11.10
2022-09-26T04:43:00.470Z,12.80
2022-09-26T04:44:00.442Z,10.10
2022-09-26T04:45:00.390Z,9.90
2022-09-26T04:46:00.377Z,11.60
2022-09-26T04:47:00.311Z,12.20
2022-09-26T04:48:00.266Z,8.90
2022-09-26T04:49:00.237Z,10.20
2022-09-26T04:50:00.200Z,10.60
2022-09-26T04:51:00.147Z,10.50
2022-09-26T04:52:00.116Z,13.90
2022-09-26T04:53:00.068Z,8.60
2022-09-26T04:54:00.028Z,10.30
2022-09-26T04:54:59.985Z,9.00
2022-09-26T04:55:59.956Z,11.90
2022-09-26T04:57:00.507Z,11.70
2022-09-26T04:57:59.999Z,11.50
2022-09-26T04:58:59.827Z,10.60
2022-09-26T04:59:59.783Z,10.70
2022-09-26T05:00:59.764Z,10.90
2022-09-26T05:01:59.770Z,11.00
2022-09-26T05:02:59.663Z,10.80
2022-09-26T05:03:59.620Z,8.90
2022-09-26T05:04:59.580Z,9.60
2022-09-26T05:05:59.549Z,8.90
2022-09-26T05:06:59.503Z,13.00
2022-09-26T05:07:59.474Z,9.90
2022-09-26T05:08:59.420Z,8.70
2022-09-26T05:09:59.377Z,8.00
2022-09-26T05:10:59.341Z,8.30
2022-09-26T05:11:59.298Z,10.60
2022-09-26T05:12:59.266Z,9.70
2022-09-26T05:13:59.216Z,11.10
2022-09-26T05:14:59.176Z,11.50
2022-09-26T05:15:59.173Z,9.40
2022-09-26T05:16:59.095Z,9.00
2022-09-26T05:17:59.068Z,12.30
2022-09-26T05:18:59.021Z,9.60
2022-09-26T05:19:58.977Z,10.20
2022-09-26T05:20:58.935Z,11.20
2022-09-26T05:21:58.893Z,9.60
2022-09-26T05:22:58.853Z,9.40
2022-09-26T05:23:58.834Z,10.80
2022-09-26T05:24:58.778Z,9.80
2022-09-26T05:25:58.730Z,9.60
2022-09-26T05:26:58.694Z,9.90
2022-09-26T05:27:58.650Z,9.80
2022-09-26T05:28:58.611Z,11.40
2022-09-26T05:29:58.581Z,10.70
2022-09-26T05:30:58.532Z,9.30
2022-09-26T05:31:58.535Z,8.80
2022-09-26T05:32:58.454Z,10.70
2022-09-26T05:33:58.409Z,9.40
2022-09-26T05:34:58.383Z,10.40
2022-09-26T05:35:58.325Z,9.90
2022-09-26T05:36:58.287Z,10.70
2022-09-26T05:37:58.245Z,11.20
2022-09-26T05:38:58.207Z,9.40
2022-09-26T05:39:58.164Z,9.80
2022-09-26T05:40:58.237Z,9.40
2022-09-26T05:41:58.088Z,10.10
2022-09-26T05:42:58.045Z,10.20
2022-09-26T05:43:58.002Z,7.70
2022-09-26T05:44:57.963Z,9.50
2022-09-26T05:45:57.922Z,7.80
2022-09-26T05:46:57.958Z,10.20
2022-09-26T05:47:57.841Z,10.50
2022-09-26T05:48:57.865Z,8.80
2022-09-26T05:49:57.761Z,8.20
2022-09-26T05:50:57.719Z,11.00
2022-09-26T05:51:58.516Z,9.70
2022-09-26T05:52:57.650Z,8.90
2022-09-26T05:53:59.444Z,11.20
2022-09-26T05:54:57.562Z,10.30
2022-09-26T05:55:57.517Z,8.80
2022-09-26T05:56:57.485Z,9.80
2022-09-26T05:57:57.449Z,10.60
2022-09-26T05:58:57.400Z,9.20
2022-09-26T05:59:57.354Z,8.30
2022-09-26T06:00:57.387Z,7.80
2022-09-26T06:01:57.353Z,9.30
2022-09-26T06:02:57.236Z,8.80
2022-09-26T06:03:57.206Z,9.50
2022-09-26T06:04:57.155Z,8.30
2022-09-26T06:05:57.113Z,9.70
2022-09-26T06:06:57.076Z,9.00
2022-09-26T06:07:57.034Z,10.60
2022-09-26T06:08:57.043Z,8.50
2022-09-26T06:09:56.953Z,8.40
2022-09-26T06:10:56.913Z,8.30
2022-09-26T06:11:56.871Z,9.00
2022-09-26T06:12:56.830Z,11.30
2022-09-26T06:13:56.804Z,9.70
2022-09-26T06:14:56.777Z,8.20
2022-09-26T06:15:56.743Z,8.80
2022-09-26T06:16:56.686Z,8.60
2022-09-26T06:17:56.634Z,8.80
2022-09-26T06:18:56.591Z,7.20
2022-09-26T06:19:56.562Z,8.50
2022-09-26T06:20:56.515Z,7.30
2022-09-26T06:21:56.471Z,8.90
2022-09-26T06:22:56.430Z,7.60
2022-09-26T06:23:56.416Z,8.00
2022-09-26T06:24:56.349Z,6.80
2022-09-26T06:25:56.322Z,7.50
2022-09-26T06:26:56.269Z,7.90
2022-09-26T06:27:59.751Z,7.50
2022-09-26T06:28:56.195Z,6.80
2022-09-26T06:29:56.148Z,6.50
2022-09-26T06:30:56.108Z,8.90
2022-09-26T06:31:56.142Z,11.20
2022-09-26T06:32:56.029Z,6.40
2022-09-26T06:33:55.992Z,5.50
2022-09-26T06:34:55.949Z,9.70
2022-09-26T06:35:55.906Z,4.60
2022-09-26T06:36:55.876Z,7.60
2022-09-26T06:37:55.850Z,6.70
2022-09-26T06:38:55.790Z,7.30
2022-09-26T06:39:59.235Z,7.90
2022-09-26T06:40:55.753Z,9.60
2022-09-26T06:41:55.683Z,6.50
2022-09-26T06:42:55.631Z,7.20
2022-09-26T06:43:55.594Z,6.40
2022-09-26T06:44:55.550Z,7.00
2022-09-26T06:45:55.508Z,4.90
2022-09-26T06:46:55.527Z,4.80
2022-09-26T06:47:55.437Z,10.00
2022-09-26T06:48:55.389Z,7.50
2022-09-26T06:49:55.349Z,5.80
2022-09-26T06:50:55.311Z,9.50
2022-09-26T06:51:55.268Z,6.80
2022-09-26T06:52:55.243Z,6.20
2022-09-26T06:53:55.189Z,6.60
2022-09-26T06:54:55.150Z,8.90
2022-09-26T06:55:55.109Z,6.70
2022-09-26T06:56:55.069Z,7.30
2022-09-26T06:57:55.030Z,7.00
2022-09-26T06:58:55.004Z,6.70
2022-09-26T06:59:54.961Z,7.30
2022-09-26T07:00:55.073Z,6.10
2022-09-26T07:01:55.002Z,7.30
2022-09-26T07:02:54.834Z,7.10
2022-09-26T07:03:54.797Z,6.80
2022-09-26T07:04:54.766Z,6.40
2022-09-26T07:05:54.713Z,6.20
2022-09-26T07:06:54.674Z,6.00
2022-09-26T07:07:54.632Z,8.60
2022-09-26T07:09:04.113Z,8.30
2022-09-26T07:09:54.553Z,6.80
2022-09-26T07:10:54.525Z,7.10
2022-09-26T07:12:14.091Z,6.10
2022-09-26T07:12:54.435Z,7.80
2022-09-26T07:13:54.416Z,5.70
2022-09-26T07:14:54.357Z,8.30
2022-09-26T07:15:54.394Z,8.80
2022-09-26T07:16:54.302Z,5.80
2022-09-26T07:17:54.244Z,8.30
2022-09-26T07:18:54.240Z,7.50
2022-09-26T07:19:54.156Z,5.00
2022-09-26T07:20:56.840Z,6.70
2022-09-26T07:21:54.081Z,6.20
2022-09-26T07:22:54.049Z,7.00
2022-09-26T07:23:53.998Z,6.30
2022-09-26T07:24:53.958Z,7.30
2022-09-26T07:25:53.919Z,8.50
2022-09-26T07:26:53.878Z,6.20
2022-09-26T07:27:53.838Z,6.10
2022-09-26T07:28:54.850Z,5.00
2022-09-26T07:29:53.765Z,6.50
2022-09-26T07:30:53.743Z,7.80
2022-09-26T07:31:53.755Z,5.00
2022-09-26T07:32:53.643Z,5.00
2022-09-26T07:33:53.602Z,5.70
2022-09-26T07:34:53.579Z,9.00
2022-09-26T07:35:53.521Z,6.90
2022-09-26T07:36:53.503Z,6.90
2022-09-26T07:37:53.442Z,5.70
2022-09-26T07:38:53.452Z,5.60
2022-09-26T07:39:56.252Z,6.50
2022-09-26T07:40:53.419Z,5.80
2022-09-26T07:41:53.284Z,5.00
2022-09-26T07:43:09.546Z,5.00
2022-09-26T07:44:52.931Z,7.30
2022-09-26T07:45:21.966Z,5.00
2022-09-26T07:46:01.074Z,5.80
2022-09-26T07:46:53.202Z,4.90
2022-09-26T07:47:53.045Z,6.50
2022-09-26T07:48:53.070Z,3.90
2022-09-26T07:49:53.115Z,3.80
2022-09-26T07:50:52.928Z,6.00
2022-09-26T07:51:52.914Z,6.00
2022-09-26T07:52:52.849Z,5.00
2022-09-26T07:53:52.810Z,5.60
2022-09-26T07:54:52.780Z,5.80
2022-09-26T07:55:52.741Z,5.00
2022-09-26T07:56:52.690Z,4.90
2022-09-26T07:57:52.649Z,6.30
2022-09-26T07:58:52.641Z,4.60
2022-09-26T07:59:52.569Z,6.50
2022-09-26T08:00:52.541Z,6.30
2022-09-26T08:01:52.601Z,4.40
2022-09-26T08:02:52.503Z,8.50
2022-09-26T08:03:52.411Z,6.30
2022-09-26T08:04:52.373Z,6.00
2022-09-26T08:05:52.331Z,6.50
2022-09-26T08:06:52.312Z,6.80
2022-09-26T08:07:52.251Z,6.20
2022-09-26T08:08:52.236Z,4.90
2022-09-26T08:09:52.173Z,5.80
2022-09-26T08:10:52.134Z,9.70
2022-09-26T08:11:52.104Z,7.40
2022-09-26T08:12:52.052Z,5.70
2022-09-26T08:13:52.014Z,4.70
2022-09-26T08:14:51.975Z,6.60
2022-09-26T08:15:52.022Z,5.40
2022-09-26T08:16:51.896Z,6.80
2022-09-26T08:17:51.862Z,6.00
2022-09-26T08:18:51.863Z,5.60
2022-09-26T08:19:51.774Z,5.80
2022-09-26T08:20:51.770Z,6.80
2022-09-26T08:21:51.694Z,7.00
2022-09-26T08:22:51.655Z,5.20
2022-09-26T08:23:51.623Z,5.90
2022-09-26T08:24:51.573Z,5.20
2022-09-26T08:25:51.539Z,5.00
2022-09-26T08:26:51.506Z,6.10
2022-09-26T08:27:51.452Z,6.70
2022-09-26T08:28:51.413Z,6.20
2022-09-26T08:29:51.385Z,7.20
2022-09-26T08:30:51.370Z,5.40
2022-09-26T08:31:51.433Z,8.40
2022-09-26T08:32:51.253Z,6.30
2022-09-26T08:33:51.215Z,6.10
2022-09-26T08:34:51.174Z,6.50
2022-09-26T08:35:51.148Z,7.30
2022-09-26T08:36:51.092Z,6.10
2022-09-26T08:37:51.055Z,6.00
2022-09-26T08:38:51.243Z,7.20
2022-09-26T08:39:50.978Z,8.30
2022-09-26T08:40:50.986Z,4.80
2022-09-26T08:41:50.904Z,6.50
2022-09-26T08:42:50.852Z,6.10
2022-09-26T08:43:50.813Z,5.80
2022-09-26T08:44:50.891Z,5.80
2022-09-26T08:45:50.735Z,6.90
2022-09-26T08:46:50.712Z,6.50
2022-09-26T08:47:50.661Z,10.10
2022-09-26T08:48:50.662Z,5.60
2022-09-26T08:49:50.573Z,6.90
2022-09-26T08:50:50.531Z,5.60
2022-09-26T08:51:50.496Z,5.30
2022-09-26T08:52:50.449Z,7.00
2022-09-26T08:53:50.423Z,6.50
2022-09-26T08:54:50.379Z,4.30
2022-09-26T08:55:50.328Z,5.50
2022-09-26T08:56:50.290Z,5.20
2022-09-26T08:57:50.252Z,6.70
2022-09-26T08:58:50.278Z,6.30
2022-09-26T08:59:50.169Z,5.20
2022-09-26T09:00:50.138Z,7.20
2022-09-26T09:01:50.185Z,4.20
2022-09-26T09:02:50.164Z,6.50
2022-09-26T09:03:50.007Z,5.20
2022-09-26T09:04:53.757Z,4.50
2022-09-26T09:05:49.936Z,6.60
2022-09-26T09:06:49.883Z,5.50
2022-09-26T09:07:49.845Z,5.00
2022-09-26T09:08:49.804Z,6.00
2022-09-26T09:09:53.225Z,5.80
2022-09-26T09:10:49.725Z,4.10
2022-09-26T09:11:51.177Z,5.50
2022-09-26T09:12:49.641Z,5.60
2022-09-26T09:13:49.606Z,6.40
2022-09-26T09:15:07.726Z,5.80
2022-09-26T09:15:49.586Z,6.20
2022-09-26T09:16:49.499Z,8.10
2022-09-26T09:17:49.451Z,6.20
2022-09-26T09:18:49.411Z,5.30
2022-09-26T09:19:49.358Z,5.80
2022-09-26T09:20:49.319Z,5.30
2022-09-26T09:21:49.284Z,5.30
2022-09-26T09:22:49.238Z,6.10
2022-09-26T09:23:49.212Z,4.60
2022-09-26T09:24:49.157Z,4.80
2022-09-26T09:25:49.324Z,4.70
2022-09-26T09:27:52.716Z,5.20
2022-09-26T09:28:48.997Z,4.40
2022-09-26T09:29:49.629Z,4.40
2022-09-26T09:30:48.913Z,6.60
2022-09-26T09:31:48.875Z,5.90
2022-09-26T09:32:48.834Z,5.40
2022-09-26T09:33:48.794Z,6.10
2022-09-26T09:34:53.039Z,5.30
2022-09-26T09:35:48.735Z,5.10
2022-09-26T09:36:48.672Z,4.30
2022-09-26T09:37:48.636Z,5.80
2022-09-26T09:38:48.591Z,6.70
2022-09-26T09:39:48.591Z,5.60
2022-09-26T09:40:48.553Z,5.60
2022-09-26T09:41:48.486Z,6.30
2022-09-26T09:42:48.429Z,6.10
2022-09-26T09:43:48.389Z,5.30
2022-09-26T09:44:48.350Z,6.80
2022-09-26T09:45:48.310Z,5.10
2022-09-26T09:46:48.318Z,5.20
2022-09-26T09:47:48.238Z,4.50
2022-09-26T09:48:48.187Z,6.80
2022-09-26T09:49:48.160Z,5.80
2022-09-26T09:50:48.106Z,6.20
2022-09-26T09:51:48.064Z,5.50
2022-09-26T09:52:48.036Z,7.10
2022-09-26T09:53:48.005Z,5.30
2022-09-26T09:54:47.944Z,5.90
2022-09-26T09:55:47.907Z,6.20
2022-09-26T09:56:48.304Z,6.30
2022-09-26T09:57:47.826Z,3.50
2022-09-26T09:58:47.798Z,5.00
2022-09-26T09:59:47.744Z,4.90
2022-09-26T10:00:51.012Z,4.60
2022-09-26T10:01:48.892Z,4.90
2022-09-26T10:02:47.735Z,6.60
2022-09-26T10:03:49.156Z,6.10
2022-09-26T10:04:47.557Z,4.60
2022-09-26T10:05:47.502Z,4.70
2022-09-26T10:06:47.544Z,4.00
2022-09-26T10:07:47.425Z,6.00
2022-09-26T10:08:47.386Z,5.50
2022-09-26T10:09:49.547Z,4.30
2022-09-26T10:10:47.322Z,6.50
2022-09-26T10:11:52.334Z,5.40
2022-09-26T10:12:47.221Z,5.40
2022-09-26T10:13:47.185Z,4.60
2022-09-26T10:14:47.166Z,6.10
2022-09-26T10:15:47.119Z,6.70
2022-09-26T10:16:47.094Z,6.00
2022-09-26T10:18:06.529Z,5.10
2022-09-26T10:18:46.982Z,4.90
2022-09-26T10:19:46.943Z,4.70
2022-09-26T10:20:46.900Z,6.70
2022-09-26T10:21:46.867Z,5.30
2022-09-26T10:22:46.832Z,4.90
2022-09-26T10:23:46.829Z,7.30
2022-09-26T10:24:46.750Z,6.50
2022-09-26T10:25:46.706Z,5.10
2022-09-26T10:26:46.672Z,5.00
2022-09-26T10:27:46.624Z,6.60
2022-09-26T10:28:46.594Z,6.20
2022-09-26T10:29:48.565Z,6.60
2022-09-26T10:30:46.579Z,5.80
2022-09-26T10:31:46.525Z,6.30
2022-09-26T10:32:46.425Z,5.90
2022-09-26T10:33:46.382Z,4.40
2022-09-26T10:34:46.356Z,5.80
2022-09-26T10:35:46.313Z,5.70
2022-09-26T10:36:46.263Z,5.60
2022-09-26T10:37:46.225Z,5.30
2022-09-26T10:38:46.190Z,6.70
2022-09-26T10:39:46.157Z,6.00
2022-09-26T10:40:46.340Z,4.40
2022-09-26T10:41:46.066Z,4.20
2022-09-26T10:42:46.026Z,4.90
2022-09-26T10:43:45.989Z,4.30
2022-09-26T10:44:45.947Z,4.70
2022-09-26T10:45:45.933Z,5.00
2022-09-26T10:46:45.909Z,4.80
2022-09-26T10:47:45.830Z,5.20
2022-09-26T10:48:45.790Z,5.80
2022-09-26T10:49:46.023Z,4.70
2022-09-26T10:50:45.747Z,4.50
2022-09-26T10:51:45.671Z,6.10
2022-09-26T10:52:45.631Z,4.60
2022-09-26T10:53:45.594Z,5.10
2022-09-26T10:54:45.555Z,4.90
2022-09-26T10:55:45.516Z,5.20
2022-09-26T10:56:45.480Z,4.30
2022-09-26T10:57:45.436Z,4.70
2022-09-26T10:58:45.396Z,4.30
2022-09-26T10:59:45.355Z,5.70
2022-09-26T11:00:45.314Z,6.30
2022-09-26T11:01:45.340Z,4.60
2022-09-26T11:02:45.236Z,6.10
2022-09-26T11:03:45.265Z,4.50
2022-09-26T11:04:45.159Z,5.20
2022-09-26T11:05:45.130Z,3.90
2022-09-26T11:06:45.093Z,4.00
2022-09-26T11:07:45.040Z,4.50
2022-09-26T11:08:45.004Z,4.40
2022-09-26T11:09:44.964Z,5.00
2022-09-26T11:10:44.924Z,5.90
2022-09-26T11:11:44.884Z,3.90
2022-09-26T11:12:44.861Z,3.70
2022-09-26T11:13:44.809Z,4.60
2022-09-26T11:14:44.769Z,6.20
2022-09-26T11:15:44.816Z,4.70
2022-09-26T11:16:44.692Z,5.30
2022-09-26T11:17:44.673Z,4.80
2022-09-26T11:18:44.623Z,5.20
2022-09-26T11:19:44.576Z,5.00
2022-09-26T11:20:44.543Z,5.70
2022-09-26T11:21:44.498Z,4.60
2022-09-26T11:22:44.465Z,4.80
2022-09-26T11:23:44.421Z,4.80
2022-09-26T11:25:05.390Z,5.10
2022-09-26T11:25:44.343Z,6.40
2022-09-26T11:26:44.304Z,5.80
2022-09-26T11:27:44.264Z,5.50
2022-09-26T11:28:44.228Z,4.30
2022-09-26T11:29:44.194Z,4.90
2022-09-26T11:30:44.216Z,5.00
2022-09-26T11:31:44.277Z,4.60
2022-09-26T11:34:15.865Z,5.10
2022-09-26T11:35:15.632Z,5.00
2022-09-26T11:36:15.601Z,5.10
2022-09-26T11:37:15.576Z,4.70
2022-09-26T11:38:15.516Z,3.90
2022-09-26T11:39:15.628Z,3.80
2022-09-26T11:40:15.515Z,3.60
2022-09-26T11:41:15.399Z,4.60
2022-09-26T11:42:15.369Z,3.90
2022-09-26T11:43:15.324Z,3.80
2022-09-26T11:44:15.395Z,3.00
2022-09-26T11:45:15.244Z,4.30
2022-09-26T11:46:15.350Z,2.90
2022-09-26T11:47:15.176Z,3.70
2022-09-26T11:48:15.137Z,5.30
2022-09-26T11:49:15.088Z,3.20
2022-09-26T11:50:15.049Z,4.60
2022-09-26T11:51:15.012Z,3.30
2022-09-26T11:52:14.972Z,5.80
2022-09-26T11:53:14.947Z,5.00
2022-09-26T11:54:14.998Z,5.40
2022-09-26T11:55:14.863Z,4.10
2022-09-26T11:56:14.829Z,4.40
2022-09-26T11:57:14.780Z,2.90
2022-09-26T11:58:14.741Z,5.20
2022-09-26T11:59:14.718Z,2.50
2022-09-26T12:00:14.668Z,3.70
2022-09-26T12:01:14.627Z,3.10
2022-09-26T12:02:14.594Z,4.10
2022-09-26T12:03:14.612Z,4.60
2022-09-26T12:04:14.734Z,4.40
2022-09-26T12:05:14.482Z,3.70
2022-09-26T12:06:14.437Z,4.30
2022-09-26T12:07:14.397Z,2.90
2022-09-26T12:08:14.357Z,3.00
2022-09-26T12:09:14.322Z,3.80
2022-09-26T12:10:14.286Z,3.20
2022-09-26T12:11:14.294Z,3.30
2022-09-26T12:12:14.221Z,2.90
2022-09-26T12:13:14.167Z,3.30
2022-09-26T12:14:14.209Z,2.90
2022-09-26T12:15:14.092Z,2.40
2022-09-26T12:16:14.147Z,2.50
2022-09-26T12:17:14.016Z,4.40
2022-09-26T12:18:13.980Z,3.60
2022-09-26T12:19:16.474Z,3.50
2022-09-26T12:20:13.897Z,2.80
2022-09-26T12:21:13.869Z,3.10
2022-09-26T12:22:13.824Z,2.50
2022-09-26T12:23:13.784Z,2.00
2022-09-26T12:24:13.838Z,2.80
2022-09-26T12:25:16.642Z,2.10
2022-09-26T12:26:13.674Z,3.30
2022-09-26T12:27:13.629Z,4.20
2022-09-26T12:28:13.591Z,3.30
2022-09-26T12:29:13.552Z,3.30
2022-09-26T12:30:13.525Z,3.80
2022-09-26T12:31:18.686Z,4.00
2022-09-26T12:32:13.436Z,3.30
2022-09-26T12:33:13.399Z,4.50
2022-09-26T12:34:13.373Z,2.90
2022-09-26T12:35:13.321Z,3.10
2022-09-26T12:36:13.292Z,4.00
2022-09-26T12:37:13.261Z,3.50
2022-09-26T12:38:13.229Z,3.90
2022-09-26T12:39:13.167Z,3.30
2022-09-26T12:40:13.155Z,4.30
2022-09-26T12:41:13.085Z,3.00
2022-09-26T12:42:13.058Z,4.80
2022-09-26T12:43:13.013Z,2.90
2022-09-26T12:44:12.969Z,3.60
2022-09-26T12:45:12.932Z,5.00
2022-09-26T12:46:12.933Z,3.90
2022-09-26T12:47:12.853Z,5.10
2022-09-26T12:48:12.817Z,5.70
2022-09-26T12:49:12.824Z,5.70
2022-09-26T12:50:12.733Z,5.90
2022-09-26T12:51:12.692Z,3.70
2022-09-26T12:52:12.665Z,3.50
2022-09-26T12:53:12.612Z,3.30
2022-09-26T12:54:12.572Z,5.90
2022-09-26T12:55:12.538Z,5.50
2022-09-26T12:56:12.504Z,4.10
2022-09-26T12:57:12.469Z,4.10
2022-09-26T12:58:12.423Z,3.40
2022-09-26T12:59:12.395Z,6.40
2022-09-26T13:00:12.337Z,3.30
2022-09-26T13:01:12.349Z,5.10
2022-09-26T13:02:12.352Z,2.60
2022-09-26T13:03:12.333Z,6.40
2022-09-26T13:04:12.173Z,4.30
2022-09-26T13:05:12.142Z,4.00
2022-09-26T13:06:12.107Z,2.90
2022-09-26T13:07:19.515Z,2.80
2022-09-26T13:08:12.020Z,4.70
2022-09-26T13:09:12.045Z,2.60
2022-09-26T13:10:11.938Z,2.80
2022-09-26T13:11:11.908Z,4.80
2022-09-26T13:12:11.858Z,4.10
2022-09-26T13:13:11.817Z,3.80
2022-09-26T13:14:11.778Z,3.40
2022-09-26T13:15:11.753Z,4.10